Terminal Aerodrome Forecast
Issued by NWS Raleigh/Durham, NC

Home | Current Version | Previous Version | Text Only | Print | Product List | Glossary On
Versions: 1 2 3 4 5 6 7 8 9 10 11 12 13 14 15 16 17 18 19 20 21 22 23 24 25 26 27 28 29 30 31 32 33 34 35 36
000
FTUS42 KRAH 270535
TAFFAY
TAF
KFAY 270535Z 2706/2806 17007KT P6SM SCT015 BKN070
      TEMPO 2708/2710 BKN015
     FM271000 17004KT 4SM BR SCT009 BKN020
      TEMPO 2710/2713 2SM BR BKN007
     FM271500 20008KT P6SM BKN050
     FM280000 19005KT P6SM OVC100=

USA.gov is the U.S. government's official web portal to all federal, state and local government web resources and services.